createdAt,value
2019-03-22T00:02:49.220Z,96249.33
2019-03-22T00:05:57.806Z,96250.01
2019-03-22T00:09:06.903Z,96245.14
2019-03-22T00:12:15.327Z,96240.38
2019-03-22T00:15:24.728Z,96239.98
2019-03-22T00:18:33.199Z,96236.17
2019-03-22T00:21:41.483Z,96236.20
2019-03-22T00:24:49.827Z,96235.20
2019-03-22T00:27:58.216Z,96230.72
2019-03-22T00:31:06.301Z,96235.02
2019-03-22T00:34:14.732Z,96226.26
2019-03-22T00:37:23.382Z,96231.84
2019-03-22T00:40:32.042Z,96231.47
2019-03-22T00:43:40.327Z,96227.60
2019-03-22T00:46:48.959Z,96227.02
2019-03-22T00:49:57.161Z,96230.23
2019-03-22T00:53:05.811Z,96232.66
2019-03-22T00:56:14.311Z,96221.48
2019-03-22T00:59:22.523Z,96225.79
2019-03-22T01:02:30.655Z,96225.21
2019-03-22T01:05:39.055Z,96228.69
2019-03-22T01:08:47.445Z,96228.02
2019-03-22T01:11:55.832Z,96223.66
2019-03-22T01:15:05.528Z,96221.98
2019-03-22T01:18:14.071Z,96220.43
2019-03-22T01:24:31.069Z,96210.69
2019-03-22T01:27:41.104Z,96206.23
2019-03-22T01:30:49.783Z,96206.37
2019-03-22T01:33:58.491Z,96202.83
2019-03-22T01:37:07.003Z,96200.44
2019-03-22T01:40:15.887Z,96199.89
2019-03-22T01:43:24.247Z,96200.52
2019-03-22T01:46:32.424Z,96193.55
2019-03-22T01:49:40.607Z,96197.08
2019-03-22T01:52:49.098Z,96192.08
2019-03-22T01:55:57.611Z,96192.64
2019-03-22T01:59:05.972Z,96186.92
2019-03-22T02:02:14.066Z,96190.92
2019-03-22T02:05:22.560Z,96188.69
2019-03-22T02:08:30.985Z,96190.09
2019-03-22T02:11:39.250Z,96189.08
2019-03-22T02:14:47.719Z,96188.25
2019-03-22T02:17:56.665Z,96188.71
2019-03-22T02:21:05.090Z,96188.32
2019-03-22T02:24:13.595Z,96178.25
2019-03-22T02:27:21.950Z,96184.05
2019-03-22T02:30:30.070Z,96180.45
2019-03-22T02:33:38.275Z,96182.34
2019-03-22T02:36:46.347Z,96173.78
2019-03-22T02:39:54.847Z,96174.11
2019-03-22T02:43:03.217Z,96175.69
2019-03-22T02:46:11.551Z,96174.19
2019-03-22T02:49:20.025Z,96178.74
2019-03-22T02:52:28.196Z,96168.67
2019-03-22T02:55:36.304Z,96172.86
2019-03-22T02:58:44.465Z,96173.68
2019-03-22T03:01:52.873Z,96173.82
2019-03-22T03:05:01.072Z,96173.59
2019-03-22T03:08:09.303Z,96177.32
2019-03-22T03:11:17.607Z,96181.14
2019-03-22T03:14:25.935Z,96186.09
2019-03-22T03:17:34.327Z,96180.82
2019-03-22T03:20:42.398Z,96180.20
2019-03-22T03:23:50.579Z,96176.38
2019-03-22T03:26:59.730Z,96180.93
2019-03-22T03:30:10.259Z,96186.22
2019-03-22T03:33:18.485Z,96189.06
2019-03-22T03:36:26.927Z,96182.67
2019-03-22T03:39:35.101Z,96185.12
2019-03-22T03:42:43.397Z,96184.77
2019-03-22T03:45:51.806Z,96187.51
2019-03-22T03:48:59.914Z,96186.42
2019-03-22T03:52:08.244Z,96179.91
2019-03-22T03:55:16.435Z,96184.35
2019-03-22T03:58:24.698Z,96181.38
2019-03-22T04:01:33.333Z,96191.28
2019-03-22T04:04:41.720Z,96185.20
2019-03-22T04:07:49.909Z,96182.80
2019-03-22T04:10:58.219Z,96187.82
2019-03-22T04:14:06.609Z,96184.99
2019-03-22T04:17:14.682Z,96189.39
2019-03-22T04:20:22.760Z,96179.34
2019-03-22T04:23:31.209Z,96185.13
2019-03-22T04:26:39.516Z,96178.64
2019-03-22T04:29:47.849Z,96176.89
2019-03-22T04:32:56.210Z,96182.59
2019-03-22T04:36:04.580Z,96189.27
2019-03-22T04:39:19.573Z,96184.55
2019-03-22T04:42:28.308Z,96177.39
2019-03-22T04:45:38.984Z,96188.75
2019-03-22T04:48:49.542Z,96191.56
2019-03-22T04:51:58.060Z,96189.89
2019-03-22T04:55:06.658Z,96186.87
2019-03-22T04:58:17.501Z,96190.19
2019-03-22T05:01:28.725Z,96196.34
2019-03-22T05:04:40.512Z,96200.59
2019-03-22T05:07:51.294Z,96195.55
2019-03-22T05:11:02.871Z,96198.45
2019-03-22T05:14:16.090Z,96198.80
2019-03-22T05:17:25.861Z,96201.17
2019-03-22T05:20:37.430Z,96197.42
2019-03-22T05:23:50.118Z,96192.42
2019-03-22T05:27:00.491Z,96191.91
2019-03-22T05:30:21.025Z,96190.25
2019-03-22T05:33:34.270Z,96197.84
2019-03-22T05:36:42.654Z,96207.81
2019-03-22T05:39:52.094Z,96211.00
2019-03-22T05:43:00.429Z,96209.04
2019-03-22T05:46:08.758Z,96216.64
2019-03-22T05:49:16.845Z,96216.17
2019-03-22T05:52:25.110Z,96221.16
2019-03-22T05:55:33.737Z,96223.68
2019-03-22T05:58:42.091Z,96226.02
2019-03-22T06:01:50.192Z,96231.50
2019-03-22T06:04:58.184Z,96233.43
2019-03-22T06:08:06.530Z,96225.43
2019-03-22T06:11:15.012Z,96227.09
2019-03-22T06:14:24.705Z,96227.39
2019-03-22T06:17:33.217Z,96229.30
2019-03-22T06:20:42.337Z,96233.93
2019-03-22T06:23:50.331Z,96232.56
2019-03-22T06:26:58.778Z,96237.80
2019-03-22T06:30:08.089Z,96246.13
2019-03-22T06:33:16.428Z,96248.72
2019-03-22T06:36:24.550Z,96246.43
2019-03-22T06:39:32.727Z,96244.72
2019-03-22T06:42:41.069Z,96243.34
2019-03-22T06:45:49.367Z,96249.23
2019-03-22T06:48:57.342Z,96245.11
2019-03-22T06:52:05.731Z,96251.56
2019-03-22T06:55:14.203Z,96252.45
2019-03-22T06:58:24.239Z,96247.23
2019-03-22T07:01:32.761Z,96247.39
2019-03-22T07:04:40.926Z,96251.63
2019-03-22T07:07:49.176Z,96259.73
2019-03-22T07:10:57.197Z,96246.70
2019-03-22T07:14:05.439Z,96239.60
2019-03-22T07:17:13.619Z,96231.58
2019-03-22T07:20:21.891Z,96236.07
2019-03-22T07:23:30.057Z,96237.64
2019-03-22T07:26:38.917Z,96239.11
2019-03-22T07:29:47.242Z,96240.95
2019-03-22T07:32:55.287Z,96255.65
2019-03-22T07:36:04.001Z,96243.69
2019-03-22T07:39:12.652Z,96244.25
2019-03-22T07:42:21.653Z,96240.29
2019-03-22T07:45:30.159Z,96239.80
2019-03-22T07:48:38.660Z,96231.20
2019-03-22T07:51:46.805Z,96217.98
2019-03-22T07:54:55.238Z,96214.64
2019-03-22T07:58:03.812Z,96222.13
2019-03-22T08:01:12.295Z,96220.43
2019-03-22T08:04:20.315Z,96231.58
2019-03-22T08:07:28.420Z,96228.13
2019-03-22T08:10:37.586Z,96237.92
2019-03-22T08:13:45.929Z,96233.11
2019-03-22T08:16:54.238Z,96235.56
2019-03-22T08:20:03.254Z,96234.16
2019-03-22T08:23:20.270Z,96239.32
2019-03-22T08:26:28.264Z,96234.13
2019-03-22T08:29:36.711Z,96221.24
2019-03-22T08:32:44.843Z,96218.14
2019-03-22T08:35:53.324Z,96220.73
2019-03-22T08:39:01.860Z,96219.63
2019-03-22T08:42:10.163Z,96220.56
2019-03-22T08:45:18.443Z,96223.80
2019-03-22T08:48:26.517Z,96225.33
2019-03-22T08:51:34.623Z,96222.93
2019-03-22T08:54:43.523Z,96213.29
2019-03-22T08:57:51.807Z,96214.03
2019-03-22T09:01:00.562Z,96215.56
2019-03-22T09:04:09.221Z,96214.56
2019-03-22T09:07:17.616Z,96219.90
2019-03-22T09:10:25.801Z,96220.16
2019-03-22T09:13:33.886Z,96219.41
2019-03-22T09:16:41.869Z,96228.28
2019-03-22T09:19:51.250Z,96225.78
2019-03-22T09:22:59.720Z,96223.25
2019-03-22T09:26:08.027Z,96221.08
2019-03-22T09:29:16.217Z,96212.17
2019-03-22T09:32:25.671Z,96215.07
2019-03-22T09:35:34.224Z,96208.86
2019-03-22T09:38:42.749Z,96218.98
2019-03-22T09:41:51.283Z,96223.19
2019-03-22T09:44:59.582Z,96218.38
2019-03-22T09:48:08.266Z,96217.05
2019-03-22T09:51:16.510Z,96210.63
2019-03-22T09:54:24.853Z,96210.77
2019-03-22T09:57:33.154Z,96209.91
2019-03-22T10:00:41.238Z,96208.96
2019-03-22T10:03:49.646Z,96196.89
2019-03-22T10:06:58.789Z,96197.53
2019-03-22T10:10:07.517Z,96199.83
2019-03-22T10:13:15.595Z,96188.38
2019-03-22T10:16:23.675Z,96196.17
2019-03-22T10:19:32.712Z,96188.70
2019-03-22T10:22:41.055Z,96188.30
2019-03-22T10:25:49.352Z,96193.58
2019-03-22T10:28:58.071Z,96184.48
2019-03-22T10:32:06.340Z,96191.17
2019-03-22T10:35:25.314Z,96193.16
2019-03-22T10:38:31.787Z,96188.53
2019-03-22T10:41:34.887Z,96186.51
2019-03-22T10:44:43.071Z,96189.63
2019-03-22T10:47:51.239Z,96181.48
2019-03-22T10:50:59.791Z,96181.52
2019-03-22T10:54:08.484Z,96176.70
2019-03-22T10:57:16.847Z,96171.30
2019-03-22T11:00:25.229Z,96174.44
2019-03-22T11:03:33.450Z,96179.10
2019-03-22T11:06:41.902Z,96179.85
2019-03-22T11:09:50.506Z,96173.89
2019-03-22T11:12:58.598Z,96172.38
2019-03-22T11:16:06.824Z,96169.40
2019-03-22T11:19:15.226Z,96174.02
2019-03-22T11:22:23.422Z,96166.53
2019-03-22T11:25:31.974Z,96160.91
2019-03-22T11:28:40.278Z,96159.83
2019-03-22T11:31:48.413Z,96157.23
2019-03-22T11:34:56.879Z,96158.20
2019-03-22T11:38:05.133Z,96157.45
2019-03-22T11:41:13.570Z,96157.96
2019-03-22T11:44:22.076Z,96156.55
2019-03-22T11:47:30.595Z,96153.59
2019-03-22T11:50:38.789Z,96151.67
2019-03-22T11:53:46.961Z,96143.59
2019-03-22T11:56:55.288Z,96140.98
2019-03-22T12:00:08.103Z,96144.17
2019-03-22T12:03:16.207Z,96142.28
2019-03-22T12:06:24.386Z,96147.13
2019-03-22T12:09:32.397Z,96151.56
2019-03-22T12:12:40.843Z,96142.59
2019-03-22T12:15:49.149Z,96136.87
2019-03-22T12:18:57.423Z,96135.25
2019-03-22T12:22:05.545Z,96130.45
2019-03-22T12:25:15.271Z,96127.29
2019-03-22T12:28:23.460Z,96126.45
2019-03-22T12:31:32.028Z,96126.35
2019-03-22T12:34:40.554Z,96126.36
2019-03-22T12:37:49.194Z,96125.27
2019-03-22T12:40:57.332Z,96128.74
2019-03-22T12:44:06.516Z,96115.16
2019-03-22T12:47:15.281Z,96114.37
2019-03-22T12:50:24.142Z,96107.13
2019-03-22T12:53:32.574Z,96115.26
2019-03-22T12:56:41.600Z,96108.92
2019-03-22T12:59:50.159Z,96120.52
2019-03-22T13:02:58.755Z,96106.11
2019-03-22T13:06:07.063Z,96098.77
2019-03-22T13:09:15.316Z,96100.98
2019-03-22T13:12:23.647Z,96102.00
2019-03-22T13:15:32.023Z,96100.46
2019-03-22T13:18:49.635Z,96094.84
2019-03-22T13:24:59.679Z,96093.97
2019-03-22T13:28:08.148Z,96092.30
2019-03-22T13:31:16.742Z,96093.31
2019-03-22T13:34:25.243Z,96093.87
2019-03-22T13:37:33.972Z,96097.53
2019-03-22T13:40:42.525Z,96090.14
2019-03-22T13:43:54.506Z,96089.16
2019-03-22T13:47:03.903Z,96084.84
2019-03-22T13:50:13.098Z,96081.59
2019-03-22T13:53:21.877Z,96082.24
2019-03-22T13:56:32.736Z,96077.24
2019-03-22T13:59:41.228Z,96077.56
2019-03-22T14:02:50.191Z,96075.87
2019-03-22T14:05:59.580Z,96071.20
2019-03-22T14:09:08.663Z,96069.64
2019-03-22T14:12:18.625Z,96071.86
2019-03-22T14:15:27.144Z,96074.53
2019-03-22T14:18:35.809Z,96079.88
2019-03-22T14:21:44.626Z,96085.01
2019-03-22T14:24:53.985Z,96076.73
2019-03-22T14:28:03.141Z,96083.21
2019-03-22T14:31:11.838Z,96081.37
2019-03-22T14:34:21.138Z,96076.12
2019-03-22T14:37:29.904Z,96070.42
2019-03-22T14:40:39.149Z,96069.31
2019-03-22T14:43:47.457Z,96069.97
2019-03-22T14:46:56.564Z,96068.16
2019-03-22T14:50:05.515Z,96063.27
2019-03-22T14:53:14.134Z,96067.05
2019-03-22T14:56:22.801Z,96061.84
2019-03-22T14:59:31.265Z,96062.63
2019-03-22T15:02:40.007Z,96060.78
2019-03-22T15:05:48.411Z,96052.23
2019-03-22T15:08:58.174Z,96060.13
2019-03-22T15:12:06.822Z,96047.08
2019-03-22T15:15:33.269Z,96041.42
2019-03-22T15:18:55.193Z,96039.52
2019-03-22T15:22:17.789Z,96051.56
2019-03-22T15:25:44.415Z,96047.66
2019-03-22T15:29:28.728Z,96043.31
2019-03-22T15:32:48.932Z,96041.72
2019-03-22T15:36:25.063Z,96044.20
2019-03-22T15:39:51.710Z,96041.30
2019-03-22T15:43:00.661Z,96040.70
2019-03-22T15:46:09.407Z,96039.92
2019-03-22T15:49:18.102Z,96037.80
2019-03-22T15:52:26.800Z,96045.56
2019-03-22T15:55:35.389Z,96042.00
2019-03-22T15:58:43.852Z,96040.52
2019-03-22T16:01:53.143Z,96038.70
2019-03-22T16:05:01.861Z,96043.41
2019-03-22T16:08:10.542Z,96045.96
2019-03-22T16:11:19.069Z,96039.03
2019-03-22T16:14:27.776Z,96032.08
2019-03-22T16:17:36.107Z,96035.89
2019-03-22T16:20:45.359Z,96037.73
2019-03-22T16:23:54.203Z,96034.84
2019-03-22T16:27:02.970Z,96033.02
2019-03-22T16:30:12.786Z,96038.86
2019-03-22T16:33:20.986Z,96032.92
2019-03-22T16:36:29.783Z,96036.21
2019-03-22T16:39:38.338Z,96032.61
2019-03-22T16:42:46.752Z,96035.79
2019-03-22T16:45:55.065Z,96034.76
2019-03-22T16:49:03.500Z,96036.91
2019-03-22T16:52:12.091Z,96040.52
2019-03-22T16:55:20.616Z,96047.59
2019-03-22T16:58:29.322Z,96060.28
2019-03-22T17:01:37.611Z,96053.53
2019-03-22T17:04:45.727Z,96047.69
2019-03-22T17:07:54.291Z,96052.00
2019-03-22T17:11:03.156Z,96046.52
2019-03-22T17:14:11.624Z,96049.47
2019-03-22T17:17:20.034Z,96042.47
2019-03-22T17:20:28.499Z,96049.20
2019-03-22T17:23:37.385Z,96043.39
2019-03-22T17:26:45.636Z,96044.95
2019-03-22T17:29:54.386Z,96046.09
2019-03-22T17:33:02.887Z,96049.53
2019-03-22T17:36:11.085Z,96051.33
2019-03-22T17:39:19.692Z,96050.97
2019-03-22T17:42:28.318Z,96050.09
2019-03-22T17:45:37.121Z,96042.45
2019-03-22T17:48:45.325Z,96044.73
2019-03-22T17:51:53.763Z,96058.30
2019-03-22T17:55:02.464Z,96054.20
2019-03-22T17:58:11.838Z,96047.52
2019-03-22T18:01:20.272Z,96049.02
2019-03-22T18:04:28.496Z,96055.88
2019-03-22T18:07:37.103Z,96052.09
2019-03-22T18:10:45.396Z,96052.16
2019-03-22T18:13:53.697Z,96043.17
2019-03-22T18:17:02.004Z,96046.96
2019-03-22T18:20:11.019Z,96038.05
2019-03-22T18:23:19.289Z,96044.70
2019-03-22T18:26:27.492Z,96044.14
2019-03-22T18:29:35.691Z,96047.97
2019-03-22T18:32:44.117Z,96050.28
2019-03-22T18:35:52.752Z,96054.78
2019-03-22T18:39:00.847Z,96057.23
2019-03-22T18:42:08.953Z,96058.61
2019-03-22T18:45:17.293Z,96055.56
2019-03-22T18:48:25.873Z,96055.36
2019-03-22T18:51:34.102Z,96047.02
2019-03-22T18:54:42.579Z,96053.50
2019-03-22T18:57:50.755Z,96059.65
2019-03-22T19:01:00.014Z,96057.50
2019-03-22T19:04:08.876Z,96054.38
2019-03-22T19:07:17.327Z,96046.77
2019-03-22T19:10:26.662Z,96053.41
2019-03-22T19:13:36.008Z,96047.09
2019-03-22T19:16:44.319Z,96055.55
2019-03-22T19:19:52.752Z,96051.63
2019-03-22T19:26:10.092Z,96057.98
2019-03-22T19:29:18.517Z,96063.54
2019-03-22T19:32:27.564Z,96059.35
2019-03-22T19:35:36.815Z,96054.89
2019-03-22T19:38:45.632Z,96063.34
2019-03-22T19:41:53.929Z,96067.57
2019-03-22T19:45:03.389Z,96062.31
2019-03-22T19:48:11.759Z,96063.34
2019-03-22T19:51:21.071Z,96063.66
2019-03-22T19:54:29.508Z,96057.33
2019-03-22T19:57:38.094Z,96063.41
2019-03-22T20:00:46.608Z,96066.58
2019-03-22T20:03:55.038Z,96063.39
2019-03-22T20:07:03.433Z,96057.10
2019-03-22T20:10:14.087Z,96059.22
2019-03-22T20:13:23.641Z,96058.69
2019-03-22T20:16:33.196Z,96055.78
2019-03-22T20:19:42.071Z,96059.20
2019-03-22T20:22:52.303Z,96057.09
2019-03-22T20:26:00.657Z,96065.78
2019-03-22T20:29:09.562Z,96071.00
2019-03-22T20:32:18.078Z,96066.78
2019-03-22T20:35:26.382Z,96070.20
2019-03-22T20:38:34.626Z,96065.20
2019-03-22T20:41:43.329Z,96064.42
2019-03-22T20:44:51.739Z,96069.68
2019-03-22T20:48:00.595Z,96061.23
2019-03-22T20:51:09.373Z,96064.89
2019-03-22T20:54:18.382Z,96061.22
2019-03-22T20:57:27.358Z,96064.67
2019-03-22T21:00:36.384Z,96065.48
2019-03-22T21:03:46.015Z,96059.44
2019-03-22T21:06:54.866Z,96059.94
2019-03-22T21:10:03.860Z,96057.89
2019-03-22T21:13:14.420Z,96063.67
2019-03-22T21:16:23.163Z,96051.30
2019-03-22T21:19:32.101Z,96055.19
2019-03-22T21:22:40.812Z,96055.44
2019-03-22T21:25:49.209Z,96048.84
2019-03-22T21:28:58.765Z,96054.34
2019-03-22T21:32:06.989Z,96050.69
2019-03-22T21:35:22.426Z,96050.12
2019-03-22T21:38:26.139Z,96048.86
2019-03-22T21:41:34.791Z,96046.20
2019-03-22T21:44:43.724Z,96050.08
2019-03-22T21:47:53.163Z,96044.49
2019-03-22T21:51:01.834Z,96042.91
2019-03-22T21:54:11.106Z,96042.92
2019-03-22T21:57:19.746Z,96039.47
2019-03-22T22:00:28.036Z,96036.34
2019-03-22T22:03:36.874Z,96041.88
2019-03-22T22:06:45.058Z,96037.86
2019-03-22T22:09:54.370Z,96037.03
2019-03-22T22:13:02.866Z,96039.37
2019-03-22T22:16:12.107Z,96042.21
2019-03-22T22:19:21.620Z,96035.41
2019-03-22T22:22:30.276Z,96035.94
2019-03-22T22:25:38.763Z,96030.70
2019-03-22T22:28:48.010Z,96032.61
2019-03-22T22:31:56.326Z,96029.70
2019-03-22T22:35:06.280Z,96030.19
2019-03-22T22:38:14.870Z,96023.85
2019-03-22T22:41:23.295Z,96019.33
2019-03-22T22:44:31.716Z,96023.94
2019-03-22T22:47:40.656Z,96021.78
2019-03-22T22:50:48.913Z,96026.23
2019-03-22T22:53:57.273Z,96017.41
2019-03-22T22:57:05.661Z,96021.27
2019-03-22T23:00:15.487Z,96014.14
2019-03-22T23:03:24.500Z,96015.70
2019-03-22T23:06:33.349Z,96012.55
2019-03-22T23:09:41.968Z,96017.20
2019-03-22T23:12:51.200Z,96014.00
2019-03-22T23:15:59.776Z,96019.77
2019-03-22T23:19:08.080Z,96018.94
2019-03-22T23:22:16.562Z,96016.63
2019-03-22T23:25:25.613Z,96021.31
2019-03-22T23:28:34.693Z,96024.39
2019-03-22T23:31:42.958Z,96026.28
2019-03-22T23:34:59.091Z,96029.23
2019-03-22T23:38:02.124Z,96027.66
2019-03-22T23:41:11.255Z,96021.34
2019-03-22T23:44:19.353Z,96021.31
2019-03-22T23:47:27.436Z,96020.77
2019-03-22T23:50:36.218Z,96017.81
2019-03-22T23:53:45.041Z,96017.81
2019-03-22T23:56:53.576Z,96022.47
